createdAt,value
2023-05-09T00:00:25.802Z,80.46
2023-05-09T00:03:28.045Z,80.83
2023-05-09T00:06:30.633Z,80.36
2023-05-09T00:09:32.996Z,80.02
2023-05-09T00:12:35.646Z,80.14
2023-05-09T00:15:37.929Z,81.11
2023-05-09T00:18:42.276Z,83.77
2023-05-09T00:21:44.727Z,82.76
2023-05-09T00:24:48.049Z,83.11
2023-05-09T00:27:50.331Z,82.85
2023-05-09T00:30:52.629Z,84.48
2023-05-09T00:33:55.000Z,83.98
2023-05-09T00:36:57.486Z,83.99
2023-05-09T00:39:59.909Z,84.10
2023-05-09T00:43:02.308Z,83.95
2023-05-09T00:46:04.775Z,83.07
2023-05-09T00:49:08.375Z,83.42
2023-05-09T00:52:11.151Z,85.40
2023-05-09T00:55:14.003Z,84.76
2023-05-09T00:58:19.440Z,84.46
2023-05-09T01:01:22.481Z,84.76
2023-05-09T01:04:25.077Z,84.63
2023-05-09T01:07:50.028Z,84.47
2023-05-09T01:11:11.056Z,84.08
2023-05-09T01:14:33.560Z,84.41
2023-05-09T01:17:49.970Z,84.37
2023-05-09T01:21:04.133Z,83.99
2023-05-09T01:24:33.291Z,84.29
2023-05-09T01:28:17.002Z,84.35
2023-05-09T01:31:23.743Z,84.33
2023-05-09T01:34:28.700Z,84.54
2023-05-09T01:37:34.375Z,84.83
2023-05-09T01:40:38.723Z,85.01
2023-05-09T01:43:43.082Z,85.31
2023-05-09T01:46:54.064Z,85.42
2023-05-09T01:49:57.430Z,85.14
2023-05-09T01:53:01.742Z,85.33
2023-05-09T01:56:05.463Z,84.54
2023-05-09T01:59:08.661Z,84.15
2023-05-09T02:02:11.730Z,84.34
2023-05-09T02:05:15.292Z,83.54
2023-05-09T02:08:21.253Z,83.97
2023-05-09T02:11:24.326Z,84.54
2023-05-09T02:14:26.736Z,84.75
2023-05-09T02:17:30.930Z,83.47
2023-05-09T02:20:35.985Z,83.13
2023-05-09T02:23:38.688Z,83.41
2023-05-09T02:26:41.645Z,83.23
2023-05-09T02:29:49.245Z,83.35
2023-05-09T02:33:03.377Z,84.84
2023-05-09T02:36:06.398Z,85.18
2023-05-09T02:39:09.531Z,85.14
2023-05-09T02:42:14.296Z,85.29
2023-05-09T02:45:17.185Z,85.74
2023-05-09T02:48:19.504Z,86.32
2023-05-09T02:51:21.747Z,86.05
2023-05-09T02:54:24.204Z,86.39
2023-05-09T02:57:26.974Z,86.71
2023-05-09T03:00:29.252Z,86.66
2023-05-09T03:03:34.197Z,86.03
2023-05-09T03:06:39.255Z,86.61
2023-05-09T03:09:41.976Z,85.83
2023-05-09T03:12:44.343Z,84.91
2023-05-09T03:15:47.560Z,85.54
2023-05-09T03:18:49.986Z,84.87
2023-05-09T03:21:52.497Z,85.67
2023-05-09T03:24:55.095Z,88.92
2023-05-09T03:27:57.828Z,89.52
2023-05-09T03:31:03.415Z,90.37
2023-05-09T03:34:06.387Z,90.08
2023-05-09T03:37:08.824Z,89.27
2023-05-09T03:40:15.820Z,89.08
2023-05-09T03:43:27.765Z,88.67
2023-05-09T03:46:30.124Z,88.21
2023-05-09T03:49:32.455Z,88.22
2023-05-09T03:52:35.128Z,88.91
2023-05-09T03:55:38.014Z,88.03
2023-05-09T03:58:40.848Z,86.47
2023-05-09T04:01:43.395Z,85.51
2023-05-09T04:04:47.353Z,85.00
2023-05-09T04:07:52.607Z,85.26
2023-05-09T04:10:55.394Z,85.93
2023-05-09T04:13:59.625Z,85.31
2023-05-09T04:17:08.270Z,85.27
2023-05-09T04:20:11.700Z,85.17
2023-05-09T04:23:15.078Z,84.07
2023-05-09T04:26:18.402Z,84.15
2023-05-09T04:29:24.024Z,84.26
2023-05-09T04:32:30.003Z,83.86
2023-05-09T04:35:32.610Z,84.02
2023-05-09T04:38:34.925Z,84.14
2023-05-09T04:41:37.866Z,84.29
2023-05-09T04:44:40.144Z,83.41
2023-05-09T04:47:42.595Z,83.41
2023-05-09T04:50:44.955Z,83.44
2023-05-09T04:53:47.175Z,83.64
2023-05-09T04:56:51.630Z,83.75
2023-05-09T05:00:00.735Z,82.92
2023-05-09T05:03:03.771Z,81.46
2023-05-09T05:06:12.520Z,81.25
2023-05-09T05:09:17.043Z,80.71
2023-05-09T05:12:19.948Z,81.53
2023-05-09T05:15:22.831Z,80.75
2023-05-09T05:18:25.938Z,80.18
2023-05-09T05:21:29.606Z,80.45
2023-05-09T05:24:31.903Z,80.62
2023-05-09T05:27:34.235Z,78.74
2023-05-09T05:30:36.668Z,78.86
2023-05-09T05:33:39.247Z,78.41
2023-05-09T05:36:41.599Z,77.42
2023-05-09T05:39:44.109Z,78.48
2023-05-09T05:42:46.810Z,77.61
2023-05-09T05:45:49.788Z,77.13
2023-05-09T05:48:54.673Z,76.57
2023-05-09T05:51:59.157Z,76.68
2023-05-09T05:55:02.003Z,74.88
2023-05-09T05:58:04.604Z,74.06
2023-05-09T06:01:06.883Z,73.48
2023-05-09T06:04:09.928Z,73.18
2023-05-09T06:07:12.986Z,72.21
2023-05-09T06:10:17.178Z,72.09
2023-05-09T06:13:20.998Z,71.48
2023-05-09T06:16:28.136Z,71.14
2023-05-09T06:19:30.392Z,71.61
2023-05-09T06:22:32.689Z,70.76
2023-05-09T06:25:34.904Z,69.76
2023-05-09T06:28:37.468Z,69.07
2023-05-09T06:31:40.935Z,67.50
2023-05-09T06:34:43.241Z,66.60
2023-05-09T06:37:47.700Z,66.47
2023-05-09T06:40:50.868Z,65.39
2023-05-09T06:43:53.286Z,65.11
2023-05-09T06:46:55.606Z,65.65
2023-05-09T06:49:57.812Z,64.23
2023-05-09T06:53:00.054Z,63.27
2023-05-09T06:56:02.384Z,63.96
2023-05-09T06:59:16.367Z,62.91
2023-05-09T07:02:18.720Z,63.19
2023-05-09T07:05:21.084Z,63.07
2023-05-09T07:08:30.386Z,60.83
2023-05-09T07:11:36.345Z,62.00
2023-05-09T07:14:45.336Z,60.65
2023-05-09T07:17:47.591Z,60.57
2023-05-09T07:20:49.980Z,60.41
2023-05-09T07:23:52.271Z,60.12
2023-05-09T07:26:54.515Z,59.17
2023-05-09T07:29:56.785Z,58.66
2023-05-09T07:33:01.604Z,57.99
2023-05-09T07:36:04.141Z,58.31
2023-05-09T07:39:06.364Z,58.58
2023-05-09T07:42:08.618Z,58.20
2023-05-09T07:45:11.011Z,58.21
2023-05-09T07:48:13.272Z,56.95
2023-05-09T07:51:15.683Z,57.08
2023-05-09T07:54:17.935Z,55.57
2023-05-09T07:57:20.163Z,55.34
2023-05-09T08:00:24.050Z,54.57
2023-05-09T08:03:26.383Z,53.36
2023-05-09T08:06:28.829Z,55.43
2023-05-09T08:09:31.063Z,54.39
2023-05-09T08:12:33.298Z,53.58
2023-05-09T08:15:35.628Z,53.36
2023-05-09T08:18:38.840Z,53.21
2023-05-09T08:21:41.208Z,52.11
2023-05-09T08:24:43.530Z,52.10
2023-05-09T08:27:45.840Z,52.32
2023-05-09T08:30:48.167Z,52.04
2023-05-09T08:33:50.362Z,52.60
2023-05-09T08:36:53.352Z,50.81
2023-05-09T08:39:55.772Z,50.89
2023-05-09T08:42:59.636Z,52.06
2023-05-09T08:46:08.036Z,52.10
2023-05-09T08:49:11.048Z,50.97
2023-05-09T08:52:14.664Z,51.82
2023-05-09T08:55:16.964Z,50.49
2023-05-09T08:58:20.469Z,49.69
2023-05-09T09:01:23.530Z,48.61
2023-05-09T09:04:25.807Z,48.06
2023-05-09T09:07:30.560Z,49.72
2023-05-09T09:10:34.400Z,51.65
2023-05-09T09:13:40.591Z,49.05
2023-05-09T09:16:45.139Z,48.30
2023-05-09T09:19:50.494Z,50.54
2023-05-09T09:22:57.367Z,47.91
2023-05-09T09:26:03.057Z,47.06
2023-05-09T09:29:05.428Z,46.83
2023-05-09T09:32:08.006Z,47.56
2023-05-09T09:35:11.746Z,47.09
2023-05-09T09:38:13.977Z,46.16
2023-05-09T09:41:16.941Z,45.55
2023-05-09T09:44:21.581Z,45.11
2023-05-09T09:47:33.491Z,43.67
2023-05-09T09:50:36.040Z,44.12
2023-05-09T09:53:42.303Z,41.74
2023-05-09T09:56:49.346Z,43.31
2023-05-09T10:00:00.857Z,44.80
2023-05-09T10:03:03.920Z,44.65
2023-05-09T10:06:14.200Z,44.41
2023-05-09T10:09:17.301Z,43.87
2023-05-09T10:12:20.849Z,45.62
2023-05-09T10:15:23.815Z,45.85
2023-05-09T10:18:29.170Z,44.32
2023-05-09T10:21:33.162Z,46.00
2023-05-09T10:24:48.720Z,44.11
2023-05-09T10:27:54.352Z,43.01
2023-05-09T10:30:59.516Z,43.79
2023-05-09T10:34:07.793Z,44.29
2023-05-09T10:37:10.369Z,43.72
2023-05-09T10:40:15.964Z,41.98
2023-05-09T10:43:18.244Z,43.42
2023-05-09T10:46:20.900Z,43.20
2023-05-09T10:49:23.637Z,43.04
2023-05-09T10:52:32.056Z,43.57
2023-05-09T10:55:45.146Z,41.04
2023-05-09T10:58:48.032Z,40.30
2023-05-09T11:02:00.965Z,42.03
2023-05-09T11:05:17.171Z,40.53
2023-05-09T11:08:23.889Z,40.37
2023-05-09T11:11:26.216Z,39.51
2023-05-09T11:14:43.119Z,41.02
2023-05-09T11:17:45.584Z,41.60
2023-05-09T11:20:49.544Z,41.90
2023-05-09T11:23:54.513Z,41.09
2023-05-09T11:26:57.806Z,40.35
2023-05-09T11:30:05.435Z,40.39
2023-05-09T11:33:22.283Z,37.92
2023-05-09T11:36:29.383Z,38.89
2023-05-09T11:39:31.911Z,38.44
2023-05-09T11:42:34.495Z,39.34
2023-05-09T11:45:36.739Z,39.21
2023-05-09T11:48:39.971Z,40.54
2023-05-09T11:51:42.700Z,39.73
2023-05-09T11:54:45.116Z,39.44
2023-05-09T11:57:49.434Z,40.62
2023-05-09T12:00:51.945Z,40.90
2023-05-09T12:03:54.377Z,41.95
2023-05-09T12:07:01.342Z,39.70
2023-05-09T12:10:07.205Z,40.63
2023-05-09T12:13:10.571Z,39.60
2023-05-09T12:16:13.057Z,38.26
2023-05-09T12:19:18.842Z,39.20
2023-05-09T12:22:21.651Z,39.43
2023-05-09T12:25:23.943Z,36.43
2023-05-09T12:28:27.152Z,37.04
2023-05-09T12:31:29.677Z,38.14
2023-05-09T12:34:32.331Z,40.42
2023-05-09T12:37:34.585Z,41.51
2023-05-09T12:40:37.161Z,40.96
2023-05-09T12:43:39.710Z,41.66
2023-05-09T12:46:42.132Z,40.88
2023-05-09T12:49:49.478Z,41.18
2023-05-09T12:53:02.940Z,43.44
2023-05-09T12:56:23.469Z,43.75
2023-05-09T12:59:28.265Z,44.50
2023-05-09T13:02:42.811Z,44.30
2023-05-09T13:05:54.474Z,41.71
2023-05-09T13:09:02.258Z,40.54
2023-05-09T13:12:04.607Z,41.55
2023-05-09T13:15:07.707Z,39.22
2023-05-09T13:18:11.165Z,40.09
2023-05-09T13:21:13.479Z,39.94
2023-05-09T13:24:15.741Z,40.22
2023-05-09T13:27:18.016Z,40.34
2023-05-09T13:30:20.389Z,39.46
2023-05-09T13:33:26.255Z,39.39
2023-05-09T13:36:28.922Z,40.08
2023-05-09T13:39:31.831Z,41.60
2023-05-09T13:42:34.791Z,42.20
2023-05-09T13:45:37.072Z,39.69
2023-05-09T13:48:39.740Z,39.40
2023-05-09T13:51:42.126Z,41.12
2023-05-09T13:54:44.572Z,42.93
2023-05-09T13:57:46.795Z,43.76
2023-05-09T14:00:49.010Z,44.26
2023-05-09T14:03:51.404Z,44.57
2023-05-09T14:06:57.548Z,45.32
2023-05-09T14:10:11.620Z,44.47
2023-05-09T14:13:18.747Z,40.27
2023-05-09T14:16:21.983Z,42.54
2023-05-09T14:19:24.201Z,43.39
2023-05-09T14:22:26.890Z,40.35
2023-05-09T14:25:29.572Z,40.70
2023-05-09T14:28:32.098Z,38.67
2023-05-09T14:31:34.496Z,38.72
2023-05-09T14:34:36.989Z,39.86
2023-05-09T14:37:39.706Z,41.81
2023-05-09T14:40:41.952Z,43.62
2023-05-09T14:43:44.388Z,47.21
2023-05-09T14:46:46.759Z,46.44
2023-05-09T14:49:49.016Z,47.23
2023-05-09T14:52:52.444Z,47.86
2023-05-09T14:55:55.135Z,49.42
2023-05-09T14:58:57.387Z,47.14
2023-05-09T15:01:59.667Z,49.94
2023-05-09T15:05:02.521Z,49.72
2023-05-09T15:08:05.161Z,48.61
2023-05-09T15:11:08.102Z,49.53
2023-05-09T15:14:10.339Z,47.54
2023-05-09T15:17:12.638Z,47.79
2023-05-09T15:20:15.728Z,48.50
2023-05-09T15:23:18.243Z,48.94
2023-05-09T15:26:20.606Z,49.07
2023-05-09T15:29:22.993Z,46.76
2023-05-09T15:32:25.270Z,47.24
2023-05-09T15:35:27.562Z,48.53
2023-05-09T15:38:29.901Z,48.46
2023-05-09T15:41:32.168Z,51.26
2023-05-09T15:44:34.551Z,49.54
2023-05-09T15:47:37.003Z,48.67
2023-05-09T15:50:39.669Z,50.68
2023-05-09T15:53:42.531Z,50.07
2023-05-09T15:56:45.329Z,50.18
2023-05-09T15:59:47.653Z,49.34
2023-05-09T16:02:50.805Z,51.13
2023-05-09T16:05:53.373Z,51.39
2023-05-09T16:08:55.677Z,50.09
2023-05-09T16:11:57.989Z,49.39
2023-05-09T16:15:00.381Z,51.02
2023-05-09T16:18:03.043Z,51.57
2023-05-09T16:21:05.515Z,51.32
2023-05-09T16:24:08.154Z,50.70
2023-05-09T16:27:10.402Z,51.78
2023-05-09T16:30:13.434Z,51.65
2023-05-09T16:33:16.077Z,52.44
2023-05-09T16:36:18.341Z,51.53
2023-05-09T16:39:20.894Z,52.47
2023-05-09T16:42:23.182Z,52.05
2023-05-09T16:45:25.582Z,51.86
2023-05-09T16:48:27.911Z,49.74
2023-05-09T16:51:30.709Z,50.31
2023-05-09T16:54:32.930Z,49.72
2023-05-09T16:57:35.180Z,49.53
2023-05-09T17:00:37.702Z,48.41
2023-05-09T17:03:40.094Z,50.59
2023-05-09T17:06:42.361Z,49.11
2023-05-09T17:09:44.684Z,49.15
2023-05-09T17:12:47.453Z,51.84
2023-05-09T17:15:52.656Z,53.72
2023-05-09T17:18:55.023Z,54.95
2023-05-09T17:21:58.983Z,56.11
2023-05-09T17:25:01.290Z,56.91
2023-05-09T17:28:03.523Z,57.27
2023-05-09T17:31:05.947Z,57.35
2023-05-09T17:34:08.284Z,57.77
2023-05-09T17:37:10.891Z,58.62
2023-05-09T17:40:13.627Z,58.63
2023-05-09T17:43:16.133Z,59.07
2023-05-09T17:46:18.425Z,59.81
2023-05-09T17:49:21.581Z,60.26
2023-05-09T17:52:23.949Z,60.74
2023-05-09T17:55:26.393Z,61.38
2023-05-09T17:58:28.952Z,62.45
2023-05-09T18:01:31.291Z,62.32
2023-05-09T18:04:34.516Z,61.87
2023-05-09T18:07:37.177Z,62.28
2023-05-09T18:10:40.999Z,62.73
2023-05-09T18:13:43.373Z,63.97
2023-05-09T18:16:45.623Z,66.26
2023-05-09T18:19:47.897Z,65.35
2023-05-09T18:22:50.119Z,66.87
2023-05-09T18:25:54.094Z,67.84
2023-05-09T18:28:56.390Z,68.01
2023-05-09T18:31:58.659Z,70.65
2023-05-09T18:35:00.939Z,71.30
2023-05-09T18:38:03.269Z,70.98
2023-05-09T18:41:10.358Z,72.57
2023-05-09T18:44:12.657Z,71.71
2023-05-09T18:47:15.885Z,71.33
2023-05-09T18:50:19.124Z,72.90
2023-05-09T18:53:21.514Z,73.63
2023-05-09T18:56:25.568Z,74.81
2023-05-09T18:59:27.900Z,73.95
2023-05-09T19:02:30.249Z,73.63
2023-05-09T19:05:32.631Z,74.15
2023-05-09T19:08:34.880Z,73.04
2023-05-09T19:11:37.455Z,73.53
2023-05-09T19:14:41.155Z,73.83
2023-05-09T19:17:43.657Z,74.12
2023-05-09T19:20:47.295Z,74.20
2023-05-09T19:23:50.108Z,72.36
2023-05-09T19:26:52.390Z,73.98
2023-05-09T19:29:54.732Z,74.83
2023-05-09T19:32:58.391Z,76.51
2023-05-09T19:36:00.964Z,77.64
2023-05-09T19:39:03.510Z,77.23
2023-05-09T19:42:05.752Z,78.32
2023-05-09T19:45:08.717Z,79.82
2023-05-09T19:48:17.182Z,80.56
2023-05-09T19:51:19.468Z,80.20
2023-05-09T19:54:25.714Z,76.03
2023-05-09T19:57:27.926Z,74.08
2023-05-09T20:00:30.174Z,73.03
2023-05-09T20:03:34.058Z,73.60
2023-05-09T20:06:36.338Z,74.42
2023-05-09T20:09:38.570Z,75.33
2023-05-09T20:12:41.465Z,75.70
2023-05-09T20:15:44.084Z,76.33
2023-05-09T20:18:46.349Z,77.13
2023-05-09T20:21:48.603Z,77.60
2023-05-09T20:24:51.144Z,78.32
2023-05-09T20:27:53.445Z,78.64
2023-05-09T20:30:56.488Z,78.94
2023-05-09T20:33:58.956Z,79.15
2023-05-09T20:37:01.492Z,79.42
2023-05-09T20:40:06.538Z,79.60
2023-05-09T20:43:08.993Z,79.70
2023-05-09T20:46:11.558Z,80.19
2023-05-09T20:49:13.905Z,80.01
2023-05-09T20:52:16.449Z,80.24
2023-05-09T20:55:18.830Z,80.49
2023-05-09T20:58:21.160Z,80.36
2023-05-09T21:01:23.707Z,80.56
2023-05-09T21:04:25.939Z,80.58
2023-05-09T21:07:28.156Z,80.27
2023-05-09T21:10:30.473Z,80.54
2023-05-09T21:13:32.676Z,80.52
2023-05-09T21:16:35.126Z,80.83
2023-05-09T21:19:37.415Z,81.15
2023-05-09T21:22:41.052Z,80.98
2023-05-09T21:25:43.331Z,81.32
2023-05-09T21:28:45.665Z,81.57
2023-05-09T21:31:48.142Z,81.73
2023-05-09T21:34:50.443Z,81.73
2023-05-09T21:37:52.780Z,81.85
2023-05-09T21:40:56.283Z,81.99
2023-05-09T21:43:58.535Z,82.12
2023-05-09T21:47:00.923Z,82.28
2023-05-09T21:50:04.332Z,82.61
2023-05-09T21:53:06.619Z,82.56
2023-05-09T21:56:08.858Z,82.91
2023-05-09T21:59:11.212Z,82.96
2023-05-09T22:02:14.489Z,83.10
2023-05-09T22:05:16.834Z,83.00
2023-05-09T22:08:19.166Z,83.34
2023-05-09T22:11:21.392Z,83.68
2023-05-09T22:14:23.810Z,83.75
2023-05-09T22:17:26.141Z,83.74
2023-05-09T22:20:28.415Z,83.74
2023-05-09T22:23:30.654Z,84.01
2023-05-09T22:26:33.241Z,84.08
2023-05-09T22:29:35.673Z,84.30
2023-05-09T22:32:38.499Z,84.45
2023-05-09T22:35:40.853Z,84.53
2023-05-09T22:38:43.141Z,84.77
2023-05-09T22:41:45.398Z,85.03
2023-05-09T22:44:50.001Z,85.12
2023-05-09T22:47:52.438Z,85.13
2023-05-09T22:50:54.700Z,85.13
2023-05-09T22:53:56.983Z,85.28
2023-05-09T22:56:59.256Z,85.61
2023-05-09T23:00:01.550Z,85.57
2023-05-09T23:03:04.636Z,86.00
2023-05-09T23:06:07.340Z,86.46
2023-05-09T23:09:10.621Z,86.95
2023-05-09T23:12:12.882Z,86.97
2023-05-09T23:15:15.160Z,87.26
2023-05-09T23:18:17.749Z,87.48
2023-05-09T23:21:19.983Z,87.86
2023-05-09T23:24:22.227Z,88.24
2023-05-09T23:27:24.467Z,88.47
2023-05-09T23:30:26.662Z,88.55
2023-05-09T23:33:28.858Z,89.01
2023-05-09T23:36:31.548Z,89.38
2023-05-09T23:39:33.761Z,89.64
2023-05-09T23:42:36.026Z,89.95
2023-05-09T23:45:38.412Z,90.03
2023-05-09T23:48:40.683Z,90.17
2023-05-09T23:51:42.871Z,90.50
2023-05-09T23:54:46.573Z,90.42
2023-05-09T23:57:48.801Z,90.39
